Time;durP1;ratioP1;P1;durP2;ratioP2;P2;SDS_P1;SDS_P2;PMS_P1;PMS_P2;Temp;Humidity;BMP_temperature;BMP_pressure;BME280_temperature;BME280_humidity;BME280_pressure;Samples;Min_cycle;Max_cycle;Signal;HPM_P1;HPM_P2
2021/06/02 00:01:56;;;;;;;2.80;1.25;;;;;;;11.41;58.11;99657.52;1727797;82;21596;-61
2021/06/02 00:04:30;;;;;;;3.58;1.40;;;;;;;11.45;58.43;99662.69;1697518;82;21027;-61
2021/06/02 00:06:59;;;;;;;4.25;1.12;;;;;;;11.42;58.13;99651.53;1710765;82;21003;-61
2021/06/02 00:09:26;;;;;;;4.83;1.10;;;;;;;11.42;57.89;99652.35;1741066;82;20983;-61
2021/06/02 00:11:55;;;;;;;3.37;1.20;;;;;;;11.48;57.75;99654.49;1726137;82;20995;-61
2021/06/02 00:14:20;;;;;;;3.47;1.30;;;;;;;11.48;57.68;99649.86;1738007;82;20987;-62
2021/06/02 00:16:47;;;;;;;4.90;1.35;;;;;;;11.47;57.37;99652.88;1726312;82;20995;-62
2021/06/02 00:19:15;;;;;;;5.35;1.32;;;;;;;11.49;57.26;99650.14;1725328;82;21596;-61
2021/06/02 00:21:43;;;;;;;2.83;1.00;;;;;;;11.52;56.98;99651.48;1722492;82;21011;-61
2021/06/02 00:24:10;;;;;;;4.47;1.52;;;;;;;11.53;56.78;99649.03;1723354;83;21003;-63
2021/06/02 00:26:37;;;;;;;6.00;1.20;;;;;;;11.53;57.15;99647.66;1705594;82;21490;-62
2021/06/02 00:29:04;;;;;;;;;;;;;;;11.53;57.31;99644.13;1721642;82;21003;-62
2021/06/02 00:31:32;;;;;;;5.40;1.30;;;;;;;11.50;57.28;99638.69;1730443;82;20099;-62
2021/06/02 00:34:02;;;;;;;2.27;1.10;;;;;;;11.45;57.24;99640.06;1732167;81;21086;-61
2021/06/02 00:36:29;;;;;;;3.62;1.30;;;;;;;11.44;57.61;99635.16;1702828;82;21124;-62
2021/06/02 00:38:57;;;;;;;3.42;1.40;;;;;;;11.44;57.69;99639.81;1730025;81;21082;-62
2021/06/02 00:41:23;;;;;;;2.65;1.35;;;;;;;11.44;57.65;99640.61;1727895;82;21093;-63
2021/06/02 00:43:50;;;;;;;3.42;1.22;;;;;;;11.38;57.61;99615.02;1727029;82;21082;-63
2021/06/02 00:46:16;;;;;;;;;;;;;;;11.44;57.72;99633.00;1691645;85;21014;-61
2021/06/02 00:48:43;;;;;;;3.80;1.40;;;;;;;11.43;57.60;99628.64;1675694;86;20152;-61
2021/06/02 00:51:10;;;;;;;5.85;1.15;;;;;;;11.35;57.85;99630.03;1690390;85;20990;-62
2021/06/02 00:53:38;;;;;;;5.08;1.50;;;;;;;11.38;57.74;99628.65;1723524;82;21519;-61
2021/06/02 00:56:07;;;;;;;6.00;1.55;;;;;;;11.37;57.30;99625.10;1737279;82;20968;-61
2021/06/02 00:58:46;;;;;;;4.08;1.30;;;;;;;11.39;57.62;99622.93;1742737;81;20991;-61
2021/06/02 01:01:14;;;;;;;3.35;1.52;;;;;;;11.39;57.66;99616.12;1735499;82;21510;-61
2021/06/02 01:03:41;;;;;;;5.70;1.90;;;;;;;11.38;57.60;99622.66;1730063;81;21032;-61
2021/06/02 01:06:07;;;;;;;5.62;1.95;;;;;;;11.38;57.39;99622.66;1726571;82;20948;-61
2021/06/02 01:08:36;;;;;;;3.60;1.72;;;;;;;11.40;57.61;99619.12;1729658;82;21038;-61
2021/06/02 01:11:03;;;;;;;5.80;1.62;;;;;;;11.36;57.20;99616.68;1733508;82;20983;-62
2021/06/02 01:13:30;;;;;;;4.97;1.60;;;;;;;11.40;57.52;99616.94;1730562;83;21058;-61
2021/06/02 01:15:56;;;;;;;3.42;1.42;;;;;;;11.38;57.62;99615.84;1713671;82;21443;-61
2021/06/02 01:18:23;;;;;;;4.08;1.55;;;;;;;11.36;57.86;99618.59;1727089;82;21054;-62
2021/06/02 01:20:51;;;;;;;3.45;1.47;;;;;;;11.37;57.58;99616.14;1728528;82;21080;-62
2021/06/02 01:23:18;;;;;;;4.50;1.50;;;;;;;11.37;57.60;99608.75;1689414;82;20995;-63
2021/06/02 01:25:44;;;;;;;3.10;1.45;;;;;;;11.38;57.47;99613.66;1706438;82;21014;-62
2021/06/02 01:28:11;;;;;;;4.03;1.57;;;;;;;11.37;57.91;99605.23;1719794;82;21034;-62
2021/06/02 01:30:37;;;;;;;;;;;;;;;11.37;57.74;99612.05;1733417;82;20983;-62
2021/06/02 01:33:34;;;;;;;3.67;1.35;;;;;;;11.38;57.98;99604.12;1742944;81;20475;-62
2021/06/02 01:36:12;;;;;;;5.72;1.57;;;;;;;11.35;57.68;99598.69;1728415;82;20994;-61
2021/06/02 01:39:17;;;;;;;5.55;1.45;;;;;;;11.36;57.60;99605.78;1739355;82;21023;-61
2021/06/02 01:42:04;;;;;;;4.45;1.75;;;;;;;11.37;57.87;99612.05;1712081;83;20984;-62
2021/06/02 01:45:01;;;;;;;5.40;1.50;;;;;;;11.36;57.93;99608.50;1718598;82;20988;-62
2021/06/02 01:48:15;;;;;;;4.60;1.67;;;;;;;11.38;57.72;99609.03;1714270;82;21455;-61
2021/06/02 01:51:05;;;;;;;5.58;1.50;;;;;;;11.41;57.76;99614.45;1700169;84;21035;-62
2021/06/02 01:53:47;;;;;;;3.60;1.60;;;;;;;11.40;57.97;99615.58;1719365;81;21018;-63
2021/06/02 01:56:53;;;;;;;5.10;1.70;;;;;;;11.39;57.76;99612.57;1730380;83;21427;-61
2021/06/02 01:59:43;;;;;;;3.72;1.35;;;;;;;11.43;57.77;99608.20;1733795;82;20958;-63
2021/06/02 02:02:35;;;;;;;4.50;1.80;;;;;;;11.39;57.50;99605.76;1728342;81;21098;-62
2021/06/02 02:05:28;;;;;;;4.25;1.52;;;;;;;11.40;58.01;99616.94;1727305;82;21389;-63
2021/06/02 02:08:28;;;;;;;4.87;1.62;;;;;;;11.37;57.79;99614.20;1745687;81;21078;-63
2021/06/02 02:11:01;;;;;;;4.25;1.72;;;;;;;11.42;57.47;99618.82;1733810;82;20983;-62
2021/06/02 02:14:09;;;;;;;4.10;1.60;;;;;;;11.44;57.57;99618.80;1714717;82;21030;-61
2021/06/02 02:16:52;;;;;;;4.10;1.40;;;;;;;11.43;57.50;99627.27;1728317;82;20995;-62
2021/06/02 02:19:48;;;;;;;4.15;1.67;;;;;;;11.47;57.74;99624.27;1701542;82;21443;-60
2021/06/02 02:22:34;;;;;;;2.85;1.50;;;;;;;11.49;57.69;99630.23;1694597;84;21203;-61
2021/06/02 02:25:19;;;;;;;3.30;1.60;;;;;;;11.47;57.92;99626.98;1693329;83;21436;-60
2021/06/02 02:28:22;;;;;;;5.65;1.60;;;;;;;11.45;58.00;99628.62;1628361;85;21582;-61
2021/06/02 02:31:02;;;;;;;7.62;1.75;;;;;;;11.51;57.84;99634.87;1677000;85;20975;-60
2021/06/02 02:33:53;;;;;;;3.25;1.85;;;;;;;11.49;57.55;99631.59;1668095;85;21509;-61
2021/06/02 02:36:44;;;;;;;2.85;1.35;;;;;;;11.51;57.50;99637.60;1620106;85;20993;-62
2021/06/02 02:39:37;;;;;;;2.55;1.70;;;;;;;11.54;57.73;99636.22;1678106;84;21099;-61
2021/06/02 02:42:17;;;;;;;6.45;1.65;;;;;;;11.56;57.49;99635.37;1677187;84;21578;-62
2021/06/02 02:45:14;;;;;;;6.08;1.20;;;;;;;11.56;57.59;99638.10;1674286;85;20985;-62
2021/06/02 02:48:05;;;;;;;8.35;1.82;;;;;;;11.59;57.77;99639.72;1678449;85;21109;-61
2021/06/02 02:50:53;;;;;;;5.20;1.50;;;;;;;11.56;57.52;99629.38;1676887;85;20976;-62
2021/06/02 02:53:26;;;;;;;4.87;1.27;;;;;;;11.60;57.81;99642.72;1678065;85;21094;-61
2021/06/02 02:56:02;;;;;;;6.15;1.50;;;;;;;11.60;57.96;99644.09;1678025;85;20964;-63
2021/06/02 02:58:50;;;;;;;3.50;1.60;;;;;;;11.58;57.99;99641.38;1678210;85;21034;-62
2021/06/02 03:01:21;;;;;;;5.00;1.70;;;;;;;11.59;58.18;99648.44;1676406;84;21030;-62
2021/06/02 03:03:56;;;;;;;4.33;1.50;;;;;;;11.59;58.23;99649.27;1684725;84;21007;-62
2021/06/02 03:06:27;;;;;;;3.98;1.50;;;;;;;11.58;58.08;99655.02;1673875;85;21504;-63
2021/06/02 03:09:19;;;;;;;3.72;1.30;;;;;;;11.58;58.30;99657.20;1730291;82;21046;-62
2021/06/02 03:12:00;;;;;;;6.78;1.37;;;;;;;11.56;58.00;99659.37;1730728;82;21037;-62
2021/06/02 03:15:01;;;;;;;4.55;1.37;;;;;;;11.56;58.61;99668.09;1724203;82;21032;-61
2021/06/02 03:17:36;;;;;;;2.90;1.65;;;;;;;11.57;58.11;99666.46;1722514;82;21077;-62
2021/06/02 03:20:10;;;;;;;3.95;1.50;;;;;;;11.59;58.05;99664.80;1696381;83;20974;-61
2021/06/02 03:22:48;;;;;;;7.20;1.20;;;;;;;11.61;58.17;99663.99;1723119;82;21034;-62
2021/06/02 03:25:24;;;;;;;5.75;1.52;;;;;;;11.62;58.12;99672.45;1724798;82;21021;-62
2021/06/02 03:28:16;;;;;;;5.20;1.60;;;;;;;11.60;57.95;99657.72;1723268;82;21033;-61
2021/06/02 03:30:52;;;;;;;4.15;1.45;;;;;;;11.60;58.36;99659.08;1725455;83;21461;-62
2021/06/02 03:34:12;;;;;;;5.00;1.42;;;;;;;11.59;58.28;99655.27;1694118;82;21015;-62
2021/06/02 03:37:25;;;;;;;3.62;1.40;;;;;;;11.58;58.28;99649.02;1713645;82;20958;-62
2021/06/02 03:40:42;;;;;;;4.45;1.80;;;;;;;11.55;58.76;99655.58;1723963;82;20998;-64
2021/06/02 03:43:27;;;;;;;6.70;1.72;;;;;;;11.56;58.64;99662.64;1717836;82;21129;-63
2021/06/02 03:46:24;;;;;;;6.10;2.05;;;;;;;11.51;58.35;99659.41;1721881;82;20935;-62
2021/06/02 03:49:15;;;;;;;3.55;1.30;;;;;;;11.54;58.90;99664.84;1719667;82;21009;-63
2021/06/02 03:51:57;;;;;;;3.45;1.50;;;;;;;11.56;59.10;99668.91;1722676;82;20997;-62
2021/06/02 03:54:41;;;;;;;2.42;1.25;;;;;;;11.57;59.17;99670.55;1735981;82;20962;-62
2021/06/02 03:57:36;;;;;;;5.78;1.40;;;;;;;11.60;59.18;99678.17;1724148;82;20974;-63
2021/06/02 04:00:19;;;;;;;5.53;1.75;;;;;;;11.67;58.88;99670.50;1688409;82;21010;-63
2021/06/02 04:03:07;;;;;;;7.80;1.87;;;;;;;11.69;59.19;99665.56;1743943;81;21648;-63
2021/06/02 04:06:01;;;;;;;5.37;1.62;;;;;;;11.68;59.10;99664.50;1744691;82;21443;-62
2021/06/02 04:08:39;;;;;;;3.80;1.30;;;;;;;11.69;59.03;99666.14;1715988;82;21596;-63
2021/06/02 04:11:34;;;;;;;4.15;1.47;;;;;;;11.69;59.43;99668.30;1721908;82;20952;-63
2021/06/02 04:14:04;;;;;;;5.08;1.50;;;;;;;11.72;59.39;99661.52;1717861;83;21585;-63
2021/06/02 04:16:40;;;;;;;5.15;1.50;;;;;;;11.75;58.92;99666.41;1711098;82;20968;-62
2021/06/02 04:19:11;;;;;;;3.50;1.40;;;;;;;11.78;59.14;99675.38;1705143;82;21020;-64
2021/06/02 04:21:40;;;;;;;6.28;1.90;;;;;;;11.80;59.49;99665.00;1712761;82;21770;-63
2021/06/02 04:24:11;;;;;;;4.55;1.70;;;;;;;11.82;59.13;99665.55;1717871;82;21023;-64
2021/06/02 04:26:37;;;;;;;6.30;1.50;;;;;;;11.83;59.17;99667.19;1731449;82;20944;-62
2021/06/02 04:29:08;;;;;;;5.50;1.80;;;;;;;11.84;59.18;99668.80;1737823;81;21059;-61
2021/06/02 04:31:34;;;;;;;4.35;1.50;;;;;;;11.77;58.72;99662.84;1732317;82;20928;-62
2021/06/02 04:34:00;;;;;;;;;;;;;;;11.79;58.56;99644.30;1738610;81;21545;-62
2021/06/02 04:36:28;;;;;;;6.67;1.40;;;;;;;11.79;58.57;99665.57;1725202;82;20104;-61
2021/06/02 04:38:55;;;;;;;4.45;1.50;;;;;;;11.76;58.99;99666.11;1706667;82;21594;-61
2021/06/02 04:41:23;;;;;;;4.00;1.52;;;;;;;11.81;58.99;99665.27;1737796;82;20988;-61
2021/06/02 04:43:52;;;;;;;7.67;1.52;;;;;;;11.86;59.07;99661.16;1726449;82;21015;-60
2021/06/02 04:46:19;;;;;;;4.62;1.45;;;;;;;11.87;58.51;99661.41;1716906;82;20999;-61
2021/06/02 04:48:48;;;;;;;3.87;1.40;;;;;;;11.91;58.62;99663.84;1715150;82;21074;-61
2021/06/02 04:52:01;;;;;;;5.33;1.50;;;;;;;11.91;58.52;99665.20;1715531;83;20955;-62
2021/06/02 04:55:01;;;;;;;4.60;1.72;;;;;;;11.95;58.90;99659.45;1710508;82;21011;-60
2021/06/02 04:58:14;;;;;;;4.90;1.75;;;;;;;11.98;58.17;99649.34;1719183;81;21015;-61
2021/06/02 05:01:30;;;;;;;4.25;1.90;;;;;;;12.01;58.58;99656.95;1714649;82;20948;-63
2021/06/02 05:04:21;;;;;;;4.08;1.47;;;;;;;12.03;58.79;99656.14;1680195;84;20909;-61
2021/06/02 05:07:06;;;;;;;5.67;1.60;;;;;;;12.07;58.69;99652.30;1688458;85;21437;-61
2021/06/02 05:10:15;;;;;;;4.22;1.70;;;;;;;12.09;58.21;99661.00;1691259;85;21035;-63
2021/06/02 05:12:59;;;;;;;6.28;1.32;;;;;;;12.16;57.71;99666.41;1678300;83;21605;-61
2021/06/02 05:16:06;;;;;;;4.42;1.85;;;;;;;12.18;58.36;99661.50;1686987;83;21026;-61
2021/06/02 05:18:46;;;;;;;4.35;1.82;;;;;;;12.22;58.62;99669.94;1682815;83;21109;-62
2021/06/02 05:22:07;;;;;;;3.27;1.67;;;;;;;12.21;58.60;99669.12;1697249;83;20974;-61
2021/06/02 05:25:19;;;;;;;3.83;1.70;;;;;;;12.15;58.30;99655.80;1694654;83;21490;-62
2021/06/02 05:28:31;;;;;;;4.72;2.02;;;;;;;12.18;58.75;99657.95;1682373;85;21099;-60
2021/06/02 05:31:32;;;;;;;3.58;1.20;;;;;;;12.19;58.31;99667.75;1691989;85;21042;-61
2021/06/02 05:34:37;;;;;;;6.62;1.72;;;;;;;12.23;58.65;99654.62;1674166;83;21041;-62
2021/06/02 05:37:48;;;;;;;3.12;1.35;;;;;;;12.24;58.81;99669.09;1674304;84;21459;-63
2021/06/02 05:40:52;;;;;;;2.92;1.25;;;;;;;12.26;58.90;99666.88;1673255;85;21020;-62
2021/06/02 05:43:32;;;;;;;3.90;1.30;;;;;;;12.26;58.42;99654.59;1686026;85;21525;-62
2021/06/02 05:46:18;;;;;;;6.10;1.50;;;;;;;12.29;58.62;99665.76;1678256;85;21005;-61
2021/06/02 05:49:27;;;;;;;7.10;1.50;;;;;;;12.34;58.53;99663.55;1668227;85;21055;-61
2021/06/02 05:52:24;;;;;;;4.87;1.67;;;;;;;12.38;58.81;99668.71;1677379;84;21482;-62
2021/06/02 05:55:27;;;;;;;4.92;2.00;;;;;;;12.38;58.79;99674.17;1686294;85;21020;-62
2021/06/02 05:58:37;;;;;;;3.85;1.30;;;;;;;12.42;58.24;99665.13;1682430;84;21485;-61
2021/06/02 06:01:42;;;;;;;3.12;1.42;;;;;;;12.51;57.93;99669.41;1682065;85;21066;-62
2021/06/02 06:04:53;;;;;;;5.55;1.30;;;;;;;12.60;58.29;99670.45;1661499;84;21035;-62
2021/06/02 06:08:04;;;;;;;3.47;1.42;;;;;;;12.68;58.87;99667.08;1683043;84;21114;-62
2021/06/02 06:10:53;;;;;;;5.58;1.60;;;;;;;12.79;58.02;99670.52;1667893;86;21152;-64
2021/06/02 06:14:03;;;;;;;6.20;1.80;;;;;;;12.83;57.60;99672.41;1693131;84;21067;-63
2021/06/02 06:16:44;;;;;;;4.58;1.65;;;;;;;12.90;56.90;99683.80;1681540;84;20995;-62
2021/06/02 06:19:51;;;;;;;5.47;1.82;;;;;;;12.90;56.43;99670.69;1687368;84;21582;-62
2021/06/02 06:22:57;;;;;;;5.05;1.62;;;;;;;13.00;57.51;99662.42;1689453;84;21058;-63
2021/06/02 06:25:33;;;;;;;4.33;1.75;;;;;;;13.16;57.24;99679.48;1669835;84;20975;-62
2021/06/02 06:28:19;;;;;;;4.22;1.50;;;;;;;13.25;56.38;99675.03;1693746;83;21086;-62
2021/06/02 06:30:49;;;;;;;6.83;1.50;;;;;;;13.32;56.82;99670.81;1694641;84;21465;-61
2021/06/02 06:33:16;;;;;;;5.30;1.45;;;;;;;13.45;56.43;99676.15;1693469;84;21993;-62
2021/06/02 06:35:45;;;;;;;3.83;1.55;;;;;;;13.54;56.23;99682.59;1693831;84;21559;-59
2021/06/02 06:38:16;;;;;;;3.37;1.45;;;;;;;13.65;55.82;99670.97;1684676;84;21090;-61
2021/06/02 06:40:43;;;;;;;4.45;1.35;;;;;;;13.77;56.66;99673.55;1690371;84;20978;-61
2021/06/02 06:43:12;;;;;;;7.95;1.50;;;;;;;13.82;54.95;99667.98;1705732;84;21687;-62
2021/06/02 06:45:40;;;;;;;4.78;1.35;;;;;;;13.84;55.48;99677.28;1696875;84;21021;-61
2021/06/02 06:48:18;;;;;;;5.03;1.45;;;;;;;13.88;56.09;99668.75;1665654;86;21730;-61
2021/06/02 06:50:45;;;;;;;5.42;1.27;;;;;;;13.98;55.10;99665.05;1674968;84;20962;-63
2021/06/02 06:53:12;;;;;;;6.35;1.30;;;;;;;14.15;54.33;99644.81;1673668;85;21182;-62
2021/06/02 06:55:38;;;;;;;2.92;1.15;;;;;;;14.26;52.99;99652.58;1676439;85;21378;-63
2021/06/02 06:58:05;;;;;;;3.87;1.27;;;;;;;14.36;52.88;99662.58;1670330;84;21014;-63
2021/06/02 07:00:34;;;;;;;5.33;1.20;;;;;;;14.40;52.70;99636.22;1664641;85;21000;-63
2021/06/02 07:03:00;;;;;;;2.83;0.95;;;;;;;14.59;53.03;99656.73;1667106;85;21024;-60
2021/06/02 07:05:27;;;;;;;4.03;1.05;;;;;;;14.67;51.70;99644.52;1651325;86;21464;-61
2021/06/02 07:07:54;;;;;;;6.15;1.37;;;;;;;14.77;52.21;99651.18;1725268;81;21015;-62
2021/06/02 07:10:21;;;;;;;3.15;1.05;;;;;;;14.87;52.29;99651.58;1728736;82;21010;-62
2021/06/02 07:12:47;;;;;;;5.72;1.10;;;;;;;15.04;51.95;99644.13;1708083;82;21031;-62
2021/06/02 07:15:15;;;;;;;3.33;1.17;;;;;;;15.15;51.80;99653.79;1713310;83;21019;-63
2021/06/02 07:17:46;;;;;;;6.67;1.40;;;;;;;15.19;49.49;99651.52;1706016;82;21075;-63
2021/06/02 07:20:23;;;;;;;6.10;1.25;;;;;;;15.18;50.29;99646.33;1698250;83;21039;-62
2021/06/02 07:22:51;;;;;;;4.35;1.25;;;;;;;15.12;50.56;99655.22;1692552;83;21154;-62
2021/06/02 07:25:26;;;;;;;2.70;1.05;;;;;;;15.11;50.59;99661.81;1711046;82;21024;-61
2021/06/02 07:27:55;;;;;;;7.37;1.40;;;;;;;15.01;49.24;99646.11;1703696;81;21083;-62
2021/06/02 07:30:25;;;;;;;10.15;1.50;;;;;;;14.98;50.11;99646.72;1694784;82;21030;-62
2021/06/02 07:32:54;;;;;;;8.55;1.60;;;;;;;14.89;50.13;99658.92;1714703;82;21067;-63
2021/06/02 07:35:21;;;;;;;6.40;1.00;;;;;;;14.80;49.86;99650.61;1718919;83;21539;-62
2021/06/02 07:37:47;;;;;;;;;;;;;;;14.86;49.75;99648.57;1685938;83;21522;-62
2021/06/02 07:40:15;;;;;;;5.30;1.00;;;;;;;14.80;49.18;99655.27;1671792;84;20119;-62
2021/06/02 07:42:42;;;;;;;3.00;0.95;;;;;;;14.74;49.76;99645.48;1639505;85;21130;-63
2021/06/02 07:45:09;;;;;;;;;;;;;;;14.83;50.30;99657.41;1716932;82;20988;-62
2021/06/02 07:47:35;;;;;;;9.55;1.40;;;;;;;14.94;49.78;99657.48;1711887;81;20137;-62
2021/06/02 07:50:03;;;;;;;;;;;;;;;14.94;49.53;99688.45;1721033;82;20991;-63
2021/06/02 07:52:31;;;;;;;2.60;1.30;;;;;;;14.90;49.39;99664.67;1701332;83;20119;-64
2021/06/02 07:54:57;;;;;;;;;;;;;;;14.87;50.40;99670.20;1696090;83;21130;-62
2021/06/02 07:57:24;;;;;;;2.58;0.82;;;;;;;14.82;49.89;99653.84;1723478;81;20095;-62
2021/06/02 07:59:51;;;;;;;6.83;1.10;;;;;;;14.75;50.25;99649.31;1716440;83;21103;-62
2021/06/02 08:02:18;;;;;;;2.62;1.00;;;;;;;14.73;50.37;99648.00;1684204;83;21128;-61
2021/06/02 08:04:45;;;;;;;4.03;1.00;;;;;;;14.75;50.78;99667.67;1675283;84;21216;-63
2021/06/02 08:07:11;;;;;;;3.80;1.20;;;;;;;14.73;51.15;99661.14;1721061;82;21613;-61
2021/06/02 08:09:40;;;;;;;3.65;1.07;;;;;;;14.74;50.63;99664.12;1720187;82;21033;-61
2021/06/02 08:12:10;;;;;;;;;;;;;;;14.80;51.00;99656.64;1726343;82;21180;-60
2021/06/02 08:14:47;;;;;;;4.90;1.13;;;;;;;14.84;51.02;99665.89;1725964;79;20210;31
2021/06/02 08:17:16;;;;;;;5.83;1.47;;;;;;;14.84;51.26;99670.00;1679436;83;21563;-67
2021/06/02 08:19:43;;;;;;;1.92;0.95;;;;;;;14.93;50.97;99669.55;1717520;83;21409;-69
2021/06/02 08:22:12;;;;;;;1.98;0.80;;;;;;;15.01;51.07;99668.86;1710601;82;21015;-68
2021/06/02 08:24:39;;;;;;;3.42;0.80;;;;;;;15.06;49.52;99658.33;1653779;84;21550;-70
2021/06/02 08:27:12;;;;;;;5.12;1.10;;;;;;;15.10;50.63;99673.06;1707544;83;21547;-70
2021/06/02 08:29:40;;;;;;;2.58;0.78;;;;;;;15.17;50.08;99664.70;1696916;83;21024;-72
2021/06/02 08:32:07;;;;;;;4.40;1.30;;;;;;;15.28;49.37;99670.80;1704224;83;21610;-74
2021/06/02 08:34:34;;;;;;;4.20;1.07;;;;;;;15.32;51.09;99664.41;1710495;83;21074;-73
2021/06/02 08:37:00;;;;;;;;;;;;;;;15.38;50.84;99667.85;1706882;83;21080;-71
2021/06/02 08:39:27;;;;;;;2.97;0.90;;;;;;;15.26;49.80;99667.56;1711241;83;20236;-70
2021/06/02 08:41:54;;;;;;;6.62;1.45;;;;;;;15.26;49.80;99667.56;1702182;80;21257;-69
2021/06/02 08:44:28;;;;;;;2.52;1.30;;;;;;;15.22;49.63;99663.24;1657716;84;21090;-71
2021/06/02 08:46:55;;;;;;;4.53;0.90;;;;;;;15.40;50.56;99675.23;1656507;86;21121;-68
2021/06/02 08:49:21;;;;;;;;;;;;;;;15.43;49.82;99678.73;1679910;84;21540;-69
2021/06/02 08:51:48;;;;;;;2.10;1.00;;;;;;;15.38;49.69;99681.02;1688440;84;20123;-69
2021/06/02 08:54:15;;;;;;;8.23;1.35;;;;;;;15.28;50.63;99684.52;1677130;84;21011;-69
2021/06/02 08:56:43;;;;;;;4.12;1.12;;;;;;;15.29;49.53;99681.48;1635312;84;21022;-68
2021/06/02 08:59:10;;;;;;;3.95;1.10;;;;;;;15.35;49.97;99683.00;1687644;84;21050;-69
2021/06/02 09:01:38;;;;;;;3.27;1.12;;;;;;;15.43;50.25;99697.94;1683085;84;21324;-70
2021/06/02 09:04:07;;;;;;;3.80;1.45;;;;;;;15.62;50.03;99681.41;1690367;84;21169;-68
2021/06/02 09:06:41;;;;;;;4.08;1.20;;;;;;;15.89;49.96;99675.32;1677117;84;21024;-69
2021/06/02 09:09:08;;;;;;;7.50;1.32;;;;;;;16.13;49.76;99691.52;1683346;84;21101;-72
2021/06/02 09:11:44;;;;;;;2.80;1.22;;;;;;;16.24;47.49;99681.94;1651662;84;21078;-69
2021/06/02 09:14:30;;;;;;;3.17;1.00;;;;;;;16.28;47.36;99688.99;1685240;84;20956;-71
2021/06/02 09:17:02;;;;;;;5.45;1.10;;;;;;;16.29;48.50;99670.84;1684487;84;20980;-71
2021/06/02 09:19:46;;;;;;;3.75;1.00;;;;;;;16.19;46.24;99677.14;1680031;84;21417;-75
2021/06/02 09:22:20;;;;;;;5.00;1.00;;;;;;;16.09;47.65;99686.95;1700241;84;21047;-69
2021/06/02 09:24:54;;;;;;;4.78;1.17;;;;;;;16.00;48.07;99681.95;1673817;84;21059;-70
2021/06/02 09:28:00;;;;;;;5.28;0.90;;;;;;;15.97;48.18;99675.71;1674177;84;21582;-70
2021/06/02 09:30:31;;;;;;;7.05;1.30;;;;;;;16.00;49.88;99683.33;1682686;84;21051;-71
2021/06/02 09:33:00;;;;;;;5.53;1.10;;;;;;;15.98;47.90;99672.64;1674361;84;21102;-72
2021/06/02 09:35:39;;;;;;;7.28;1.20;;;;;;;15.88;47.71;99687.97;1676613;84;21024;-70
2021/06/02 09:38:06;;;;;;;5.30;0.82;;;;;;;15.72;47.77;99678.45;1683204;84;21625;-70
2021/06/02 09:40:36;;;;;;;4.70;0.80;;;;;;;15.65;48.06;99661.03;1692635;84;21023;-72
2021/06/02 09:43:03;;;;;;;2.15;0.80;;;;;;;15.60;48.64;99695.42;1675649;84;21039;-72
2021/06/02 09:45:29;;;;;;;7.50;1.05;;;;;;;15.59;48.38;99682.03;1673110;84;21030;-71
2021/06/02 09:48:04;;;;;;;3.58;1.07;;;;;;;15.53;47.92;99679.11;1672932;84;21109;-71
2021/06/02 09:50:38;;;;;;;4.50;1.10;;;;;;;15.53;48.40;99684.59;1662377;84;21493;-72
2021/06/02 09:53:06;;;;;;;4.53;0.85;;;;;;;15.55;48.55;99687.31;1646235;85;21043;-70
2021/06/02 09:55:36;;;;;;;5.25;0.80;;;;;;;15.59;48.83;99684.77;1672521;84;21478;-71
2021/06/02 09:58:13;;;;;;;7.20;1.17;;;;;;;15.69;49.64;99695.53;1689564;83;21074;-71
2021/06/02 10:00:43;;;;;;;2.35;1.07;;;;;;;15.78;48.54;99693.67;1658526;84;21522;-70
2021/06/02 10:03:17;;;;;;;4.55;0.90;;;;;;;15.74;47.79;99700.89;1662052;84;21134;-73
2021/06/02 10:05:46;;;;;;;3.42;0.68;;;;;;;15.67;48.13;99700.50;1679524;84;20990;-71
2021/06/02 10:08:34;;;;;;;10.08;1.30;;;;;;;15.65;48.21;99698.63;1687065;83;21061;-71
2021/06/02 10:11:20;;;;;;;5.05;0.75;;;;;;;15.65;49.45;99700.81;1664829;86;21054;-71
2021/06/02 10:13:43;;;;;;;8.23;1.00;;;;;;;15.68;48.88;99705.69;1680038;84;21102;-71
2021/06/02 10:18:48;;;;;;;4.53;1.02;;;;;;;15.66;48.96;99703.80;1756686;79;28541;-69
2021/06/02 10:21:15;;;;;;;4.03;0.90;;;;;;;15.89;49.17;99710.19;1725056;81;28034;-70
2021/06/02 10:23:45;;;;;;;5.62;1.17;;;;;;;16.30;48.05;99713.64;1738906;81;21022;-70
2021/06/02 10:26:17;;;;;;;2.58;0.80;;;;;;;16.35;48.03;99710.80;1740755;81;21056;-70
2021/06/02 10:28:46;;;;;;;3.40;0.80;;;;;;;16.17;47.93;99714.50;1741795;81;20983;-72
2021/06/02 10:31:13;;;;;;;4.50;1.30;;;;;;;16.03;48.45;99712.91;1674594;84;21031;-70
2021/06/02 10:33:41;;;;;;;4.78;1.20;;;;;;;15.94;48.82;99716.95;1697953;84;21643;-71
2021/06/02 10:36:08;;;;;;;5.83;1.15;;;;;;;15.93;48.66;99714.77;1695807;82;21042;-70
2021/06/02 10:38:53;;;;;;;5.90;1.20;;;;;;;15.93;48.97;99723.56;1697801;84;21030;-69
2021/06/02 10:41:38;;;;;;;3.17;0.95;;;;;;;15.84;47.36;99717.14;1691437;84;21492;-70
2021/06/02 10:44:09;;;;;;;4.53;0.88;;;;;;;15.84;48.11;99705.61;1685550;84;21054;-70
2021/06/02 10:46:37;;;;;;;2.90;1.00;;;;;;;15.86;48.59;99722.61;1694508;84;21545;-69
2021/06/02 10:49:04;;;;;;;2.92;0.82;;;;;;;15.85;48.66;99723.72;1694727;84;21042;-71
2021/06/02 10:51:36;;;;;;;2.70;1.00;;;;;;;15.90;48.94;99718.69;1703139;84;21014;-69
2021/06/02 10:54:10;;;;;;;6.55;1.15;;;;;;;15.94;48.65;99716.95;1712195;84;21106;-70
2021/06/02 10:57:03;;;;;;;2.98;0.85;;;;;;;15.93;48.21;99713.95;1707074;84;21031;-70
2021/06/02 10:59:37;;;;;;;3.80;1.02;;;;;;;15.86;47.23;99708.06;1675499;84;21098;-69
2021/06/02 11:02:30;;;;;;;3.20;0.98;;;;;;;15.83;47.51;99704.01;1696310;84;21106;-69
2021/06/02 11:05:06;;;;;;;4.75;1.80;;;;;;;15.84;47.31;99715.22;1672941;84;21549;-69
2021/06/02 11:07:33;;;;;;;4.42;0.90;;;;;;;15.83;46.70;99715.55;1701726;84;21086;-70
2021/06/02 11:10:09;;;;;;;3.90;1.20;;;;;;;15.84;46.21;99711.10;1689920;84;21050;-70
2021/06/02 11:12:52;;;;;;;4.10;0.90;;;;;;;15.91;46.97;99710.68;1698858;84;21604;-69
2021/06/02 11:15:45;;;;;;;3.72;0.88;;;;;;;15.97;47.14;99718.27;1694703;84;21110;-69
2021/06/02 11:18:18;;;;;;;9.28;1.27;;;;;;;16.07;47.54;99724.34;1698374;83;21131;-71
2021/06/02 11:20:51;;;;;;;3.47;1.15;;;;;;;16.12;46.41;99706.37;1704962;83;21096;-70
2021/06/02 11:23:20;;;;;;;3.12;1.00;;;;;;;16.21;46.65;99717.45;1707714;83;21093;-70
2021/06/02 11:25:49;;;;;;;6.70;1.25;;;;;;;16.26;46.52;99711.27;1708197;83;21045;-71
2021/06/02 11:28:47;;;;;;;4.65;0.93;;;;;;;16.31;45.49;99718.03;1707356;83;21179;-70
2021/06/02 11:31:29;;;;;;;2.92;1.10;;;;;;;16.38;46.09;99725.84;1687075;84;21079;-70
2021/06/02 11:34:27;;;;;;;3.75;0.98;;;;;;;16.41;45.76;99719.72;1696979;84;21162;-69
2021/06/02 11:37:05;;;;;;;2.05;0.90;;;;;;;16.44;46.34;99718.53;1684108;84;20998;-70
2021/06/02 11:39:36;;;;;;;2.35;1.17;;;;;;;16.47;46.30;99726.73;1678973;84;21050;-69
2021/06/02 11:42:06;;;;;;;4.87;1.10;;;;;;;16.50;46.81;99719.25;1697167;83;21015;-69
2021/06/02 11:44:34;;;;;;;3.05;0.93;;;;;;;16.60;45.80;99725.90;1666158;83;20992;-70
2021/06/02 11:47:01;;;;;;;2.47;1.20;;;;;;;16.70;45.88;99724.83;1707185;83;21534;-70
2021/06/02 11:49:35;;;;;;;4.25;1.12;;;;;;;16.79;45.39;99718.27;1697495;83;21529;-70
2021/06/02 11:52:11;;;;;;;5.05;1.50;;;;;;;16.86;45.49;99707.63;1682627;84;21041;-70
2021/06/02 11:54:52;;;;;;;6.05;1.10;;;;;;;17.00;46.38;99715.84;1688546;84;21086;-71
2021/06/02 11:57:32;;;;;;;3.33;1.10;;;;;;;17.09;45.89;99713.12;1692052;84;21166;-70
2021/06/02 12:00:12;;;;;;;4.30;1.10;;;;;;;17.17;45.38;99705.48;1696304;83;21549;-71
2021/06/02 12:02:39;;;;;;;3.92;1.10;;;;;;;17.31;46.14;99696.02;1686215;83;21091;-71
2021/06/02 12:05:34;;;;;;;6.78;1.20;;;;;;;17.56;46.19;99704.69;1698504;83;21481;-71
2021/06/02 12:08:04;;;;;;;3.62;1.12;;;;;;;17.79;45.80;99708.42;1703131;83;21770;-71
2021/06/02 12:10:43;;;;;;;6.53;1.20;;;;;;;17.94;44.46;99709.11;1709571;83;20988;-71
2021/06/02 12:13:17;;;;;;;5.30;1.30;;;;;;;18.07;45.59;99716.41;1710267;83;21127;-72
2021/06/02 12:15:58;;;;;;;8.75;1.17;;;;;;;18.09;43.10;99712.23;1696132;83;21003;-72
2021/06/02 12:18:44;;;;;;;2.35;1.15;;;;;;;18.13;44.26;99708.27;1684281;83;21088;-71
2021/06/02 12:21:26;;;;;;;3.27;1.10;;;;;;;18.17;43.04;99714.19;1687255;84;21027;-70
2021/06/02 12:24:05;;;;;;;3.37;1.35;;;;;;;18.20;42.90;99716.30;1695238;83;21144;-71
2021/06/02 12:26:36;;;;;;;3.42;1.00;;;;;;;18.32;42.10;99715.64;1691061;85;21035;-71
2021/06/02 12:29:05;;;;;;;3.72;0.95;;;;;;;18.29;42.80;99706.08;1694181;83;21552;-71
2021/06/02 12:31:42;;;;;;;3.40;1.10;;;;;;;18.25;42.67;99702.91;1701141;83;21648;-72